Time;durP1;ratioP1;P1;durP2;ratioP2;P2;SDS_P1;SDS_P2;PMS_P1;PMS_P2;Temp;Humidity;BMP_temperature;BMP_pressure;BME280_temperature;BME280_humidity;BME280_pressure;Samples;Min_cycle;Max_cycle;Signal;HPM_P1;HPM_P2
2022/03/04 00:01:52;;;;;;;;;5.50;5.50;;;;;;;;5097872;27;45440;-69
2022/03/04 00:04:17;;;;;;;;;7.00;5.75;;;;;;;;5100497;27;45420;-69
2022/03/04 00:06:43;;;;;;;;;6.75;6.75;;;;;;;;5097694;27;45299;-69
2022/03/04 00:09:08;;;;;;;;;7.25;5.75;;;;;;;;5097773;27;45473;-69
2022/03/04 00:11:33;;;;;;;;;8.25;4.25;;;;;;;;5098800;27;45584;-69
2022/03/04 00:14:00;;;;;;;;;6.50;6.00;;;;;;;;5098144;27;45266;-69
2022/03/04 00:16:25;;;;;;;;;7.75;5.50;;;;;;;;5097491;27;45290;-69
2022/03/04 00:19:06;;;;;;;;;7.00;5.75;;;;;;;;5097776;27;45484;-69
2022/03/04 00:21:32;;;;;;;;;6.00;6.00;;;;;;;;5086668;27;46416;-69
2022/03/04 00:23:57;;;;;;;;;6.75;6.75;;;;;;;;5097700;27;45416;-69
2022/03/04 00:26:22;;;;;;;;;7.00;6.75;;;;;;;;5097661;27;45290;-69
2022/03/04 00:28:47;;;;;;;;;8.25;6.25;;;;;;;;5085291;27;45441;-69
2022/03/04 00:31:12;;;;;;;;;8.50;6.25;;;;;;;;5092254;27;46585;-69
2022/03/04 00:33:38;;;;;;;;;6.50;6.50;;;;;;;;5096869;27;45223;-69
2022/03/04 00:36:03;;;;;;;;;5.75;5.75;;;;;;;;5096332;27;45320;-69
2022/03/04 00:38:28;;;;;;;;;6.00;5.50;;;;;;;;5097176;27;45487;-69
2022/03/04 00:40:53;;;;;;;;;5.00;5.00;;;;;;;;5084402;27;46575;-69
2022/03/04 00:43:19;;;;;;;;;7.75;5.00;;;;;;;;5093166;27;45389;-69
2022/03/04 00:45:44;;;;;;;;;5.25;5.25;;;;;;;;5093124;27;45461;-69
2022/03/04 00:48:09;;;;;;;;;6.75;5.00;;;;;;;;5084033;27;45322;-69
2022/03/04 00:50:34;;;;;;;;;6.50;5.00;;;;;;;;5096674;27;45621;-69
2022/03/04 00:53:01;;;;;;;;;5.50;5.25;;;;;;;;5099420;27;45259;-69
2022/03/04 00:55:26;;;;;;;;;6.00;6.00;;;;;;;;5096401;27;45472;-69
2022/03/04 00:57:51;;;;;;;;;10.25;7.00;;;;;;;;5102395;27;45434;-69
2022/03/04 01:00:17;;;;;;;;;6.75;6.75;;;;;;;;5096614;27;46015;-69
2022/03/04 01:02:42;;;;;;;;;6.00;6.00;;;;;;;;5078606;27;45426;-69
2022/03/04 01:05:07;;;;;;;;;8.00;6.00;;;;;;;;5097485;27;45557;-69
2022/03/04 01:07:32;;;;;;;;;6.00;5.00;;;;;;;;5095978;27;45334;-69
2022/03/04 01:09:58;;;;;;;;;6.00;4.50;;;;;;;;5096414;27;46158;-69
2022/03/04 01:12:23;;;;;;;;;5.00;5.00;;;;;;;;5096408;27;45476;-69
2022/03/04 01:14:51;;;;;;;;;6.25;4.75;;;;;;;;5096686;27;45333;-69
2022/03/04 01:17:16;;;;;;;;;7.50;6.00;;;;;;;;5080026;27;45973;-69
2022/03/04 01:19:42;;;;;;;;;4.50;4.50;;;;;;;;5096858;27;45456;-69
2022/03/04 01:22:07;;;;;;;;;8.25;7.50;;;;;;;;5099816;27;45467;-69
2022/03/04 01:24:32;;;;;;;;;5.75;5.75;;;;;;;;5096018;27;45412;-69
2022/03/04 01:26:57;;;;;;;;;7.00;6.25;;;;;;;;5096186;27;45468;-69
2022/03/04 01:29:22;;;;;;;;;5.50;5.00;;;;;;;;5079628;27;46420;-69
2022/03/04 01:31:48;;;;;;;;;7.00;7.00;;;;;;;;5092200;27;45680;-69
2022/03/04 01:34:13;;;;;;;;;6.75;5.75;;;;;;;;5095880;27;45667;-69
2022/03/04 01:36:38;;;;;;;;;6.50;6.00;;;;;;;;5095993;27;45357;-69
2022/03/04 01:39:03;;;;;;;;;8.50;8.25;;;;;;;;5105212;27;46052;-69
2022/03/04 01:41:29;;;;;;;;;5.50;5.50;;;;;;;;5095706;27;45318;-69
2022/03/04 01:43:54;;;;;;;;;8.00;6.75;;;;;;;;5096947;27;45381;-69
2022/03/04 01:46:23;;;;;;;;;7.00;5.50;;;;;;;;5096921;27;45593;-69
2022/03/04 01:48:48;;;;;;;;;6.00;4.25;;;;;;;;5094251;27;46613;-69
2022/03/04 01:51:14;;;;;;;;;6.50;5.75;;;;;;;;5095329;27;45456;-69
2022/03/04 01:53:39;;;;;;;;;6.25;6.00;;;;;;;;5095876;27;45374;-69
2022/03/04 01:56:05;;;;;;;;;6.50;5.50;;;;;;;;5096375;27;45762;-69
2022/03/04 01:58:30;;;;;;;;;5.75;5.75;;;;;;;;5096133;27;48037;-69
2022/03/04 02:00:55;;;;;;;;;7.00;7.00;;;;;;;;5095699;27;45447;-69
2022/03/04 02:03:20;;;;;;;;;7.50;7.00;;;;;;;;5097988;27;45410;-70
2022/03/04 02:05:45;;;;;;;;;7.25;7.25;;;;;;;;5099765;27;45511;-68
2022/03/04 02:08:11;;;;;;;;;6.50;6.50;;;;;;;;5096054;27;45370;-69
2022/03/04 02:10:36;;;;;;;;;6.50;6.50;;;;;;;;5094873;27;45489;-69
2022/03/04 02:13:01;;;;;;;;;7.00;5.50;;;;;;;;5095907;27;45349;-69
2022/03/04 02:15:26;;;;;;;;;7.50;7.50;;;;;;;;5095195;27;45448;-69
2022/03/04 02:17:52;;;;;;;;;5.75;5.75;;;;;;;;5095653;27;47325;-69
2022/03/04 02:20:19;;;;;;;;;6.25;5.00;;;;;;;;5096388;27;45390;-69
2022/03/04 02:22:45;;;;;;;;;6.00;5.25;;;;;;;;5095770;27;45620;-69
2022/03/04 02:25:10;;;;;;;;;7.00;7.00;;;;;;;;5100545;27;45355;-69
2022/03/04 02:27:35;;;;;;;;;7.25;5.00;;;;;;;;5104631;27;46279;-69
2022/03/04 02:30:00;;;;;;;;;6.25;5.00;;;;;;;;5097199;27;45495;-69
2022/03/04 02:32:26;;;;;;;;;8.00;8.00;;;;;;;;5095452;27;45572;-69
2022/03/04 02:34:51;;;;;;;;;8.75;7.00;;;;;;;;5097819;27;45519;-69
2022/03/04 02:37:18;;;;;;;;;5.50;5.50;;;;;;;;5096310;27;45532;-69
2022/03/04 02:39:43;;;;;;;;;5.50;5.50;;;;;;;;5073185;27;45677;-69
2022/03/04 02:42:09;;;;;;;;;6.25;6.25;;;;;;;;5082227;27;45351;-69
2022/03/04 02:44:34;;;;;;;;;7.25;6.50;;;;;;;;5094718;27;45372;-69
2022/03/04 02:46:59;;;;;;;;;5.00;5.00;;;;;;;;5095838;27;45468;-69
2022/03/04 02:49:24;;;;;;;;;6.75;6.00;;;;;;;;5099104;27;45557;-69
2022/03/04 02:51:49;;;;;;;;;7.25;5.50;;;;;;;;5090545;27;45341;-69
2022/03/04 02:54:15;;;;;;;;;5.00;5.00;;;;;;;;5082698;27;45390;-69
2022/03/04 02:56:41;;;;;;;;;7.00;6.00;;;;;;;;5095050;27;45997;-69
2022/03/04 02:59:06;;;;;;;;;5.25;5.25;;;;;;;;5081547;27;45809;-69
2022/03/04 03:01:31;;;;;;;;;4.50;4.50;;;;;;;;5096494;27;45449;-69
2022/03/04 03:03:56;;;;;;;;;5.50;5.50;;;;;;;;5098641;27;45418;-69
2022/03/04 03:06:22;;;;;;;;;6.75;6.75;;;;;;;;5097908;27;45544;-69
2022/03/04 03:08:47;;;;;;;;;8.00;6.75;;;;;;;;5098973;27;45341;-69
2022/03/04 03:11:12;;;;;;;;;9.00;6.25;;;;;;;;5099436;27;45437;-69
2022/03/04 03:13:37;;;;;;;;;7.50;6.25;;;;;;;;5098332;27;45267;-69
2022/03/04 03:16:03;;;;;;;;;6.00;6.00;;;;;;;;5092377;27;46519;-69
2022/03/04 03:18:28;;;;;;;;;8.25;6.50;;;;;;;;5087643;27;45489;-70
2022/03/04 03:20:53;;;;;;;;;6.50;5.50;;;;;;;;5097850;27;45941;-69
2022/03/04 03:23:18;;;;;;;;;5.50;5.50;;;;;;;;5099197;27;45318;-69
2022/03/04 03:25:44;;;;;;;;;8.50;5.25;;;;;;;;5098229;27;45467;-68
2022/03/04 03:28:09;;;;;;;;;5.00;5.00;;;;;;;;5091493;27;45519;-69
2022/03/04 03:30:34;;;;;;;;;6.00;5.75;;;;;;;;5083389;27;45500;-69
2022/03/04 03:32:59;;;;;;;;;5.00;5.00;;;;;;;;5098165;27;45550;-69
2022/03/04 03:35:25;;;;;;;;;5.75;5.75;;;;;;;;5098061;27;45618;-69
2022/03/04 03:37:50;;;;;;;;;8.75;7.50;;;;;;;;5098636;27;45354;-69
2022/03/04 03:40:15;;;;;;;;;8.00;7.00;;;;;;;;5098406;27;45737;-69
2022/03/04 03:42:41;;;;;;;;;6.75;5.75;;;;;;;;5097870;27;46751;-69
2022/03/04 03:45:07;;;;;;;;;7.00;7.00;;;;;;;;5097849;27;46474;-69
2022/03/04 03:47:32;;;;;;;;;5.00;5.00;;;;;;;;5097926;27;45527;-69
2022/03/04 03:49:57;;;;;;;;;5.75;5.75;;;;;;;;5109481;27;45440;-68
2022/03/04 03:52:23;;;;;;;;;6.75;6.00;;;;;;;;5100458;27;45418;-69
2022/03/04 03:54:48;;;;;;;;;7.25;7.00;;;;;;;;5097952;27;46510;-69
2022/03/04 03:57:13;;;;;;;;;8.00;7.00;;;;;;;;5097717;27;45444;-69
2022/03/04 03:59:39;;;;;;;;;6.50;6.50;;;;;;;;5099187;27;45502;-69
2022/03/04 04:02:04;;;;;;;;;5.00;5.00;;;;;;;;5098834;27;45335;-68
2022/03/04 04:04:35;;;;;;;;;7.25;6.00;;;;;;;;5098581;27;45495;-69
2022/03/04 04:07:04;;;;;;;;;8.25;7.25;;;;;;;;5091499;27;45367;-69
2022/03/04 04:09:29;;;;;;;;;6.00;6.00;;;;;;;;5086814;27;45414;-69
2022/03/04 04:11:55;;;;;;;;;10.00;7.00;;;;;;;;5096312;27;45341;-69
2022/03/04 04:14:20;;;;;;;;;7.25;6.25;;;;;;;;5098200;27;46490;-68
2022/03/04 04:16:45;;;;;;;;;6.00;6.00;;;;;;;;5097950;27;45352;-69
2022/03/04 04:19:10;;;;;;;;;7.50;7.50;;;;;;;;5089455;27;45504;-69
2022/03/04 04:21:35;;;;;;;;;6.25;5.25;;;;;;;;5088296;27;45494;-69
2022/03/04 04:24:01;;;;;;;;;7.25;6.25;;;;;;;;5096803;27;45375;-69
2022/03/04 04:26:26;;;;;;;;;6.00;5.75;;;;;;;;5097690;27;45437;-69
2022/03/04 04:28:51;;;;;;;;;8.25;6.75;;;;;;;;5098181;27;45378;-69
2022/03/04 04:31:17;;;;;;;;;8.00;6.50;;;;;;;;5097306;27;45447;-69
2022/03/04 04:33:42;;;;;;;;;5.50;5.50;;;;;;;;5097476;27;46540;-69
2022/03/04 04:36:07;;;;;;;;;7.25;7.25;;;;;;;;5078806;27;45946;-68
2022/03/04 04:38:33;;;;;;;;;7.50;6.75;;;;;;;;5102319;27;45390;-69
2022/03/04 04:40:58;;;;;;;;;6.00;6.00;;;;;;;;5096154;27;45369;-69
2022/03/04 04:43:23;;;;;;;;;7.00;6.00;;;;;;;;5096736;27;46649;-69
2022/03/04 04:45:48;;;;;;;;;6.00;5.50;;;;;;;;5096220;27;45537;-69
2022/03/04 04:48:14;;;;;;;;;7.25;7.25;;;;;;;;5096575;27;45393;-69
2022/03/04 04:50:39;;;;;;;;;6.75;6.75;;;;;;;;5096285;27;45579;-69
2022/03/04 04:53:04;;;;;;;;;6.00;6.00;;;;;;;;5097560;27;45408;-69
2022/03/04 04:55:30;;;;;;;;;7.00;7.00;;;;;;;;5096132;27;45372;-69
2022/03/04 04:57:55;;;;;;;;;6.00;6.00;;;;;;;;5096747;27;45602;-69
2022/03/04 05:00:20;;;;;;;;;6.00;6.00;;;;;;;;5096894;27;45577;-70
2022/03/04 05:02:45;;;;;;;;;7.75;6.25;;;;;;;;5096154;27;46567;-69
2022/03/04 05:05:11;;;;;;;;;5.75;5.75;;;;;;;;5082038;27;45319;-69
2022/03/04 05:07:36;;;;;;;;;10.00;5.75;;;;;;;;5095608;27;48697;-69
2022/03/04 05:10:02;;;;;;;;;5.50;5.50;;;;;;;;5096205;27;45556;-69
2022/03/04 05:12:27;;;;;;;;;6.75;6.75;;;;;;;;5096022;27;47088;-69
2022/03/04 05:14:52;;;;;;;;;6.25;6.25;;;;;;;;5096371;27;45542;-69
2022/03/04 05:17:18;;;;;;;;;6.25;6.25;;;;;;;;5097620;27;45359;-69
2022/03/04 05:19:43;;;;;;;;;5.50;5.50;;;;;;;;5084455;27;45598;-69
2022/03/04 05:22:08;;;;;;;;;7.00;6.50;;;;;;;;5091133;27;46737;-69
2022/03/04 05:24:33;;;;;;;;;5.00;5.00;;;;;;;;5098248;27;45786;-69
2022/03/04 05:26:58;;;;;;;;;7.00;6.00;;;;;;;;5096420;27;45519;-69
2022/03/04 05:29:24;;;;;;;;;9.50;7.75;;;;;;;;5078246;27;45546;-69
2022/03/04 05:31:49;;;;;;;;;8.75;7.25;;;;;;;;5097145;27;45592;-69
2022/03/04 05:34:15;;;;;;;;;6.75;6.25;;;;;;;;5095909;27;45481;-69
2022/03/04 05:36:40;;;;;;;;;6.50;5.50;;;;;;;;5095663;27;45364;-69
2022/03/04 05:39:06;;;;;;;;;7.25;6.25;;;;;;;;5096752;27;45466;-69
2022/03/04 05:41:31;;;;;;;;;5.25;5.25;;;;;;;;5078232;27;48218;-69
2022/03/04 05:43:57;;;;;;;;;8.00;7.00;;;;;;;;5083406;27;45288;-69
2022/03/04 05:46:22;;;;;;;;;5.25;5.25;;;;;;;;5094655;27;45539;-69
2022/03/04 05:48:47;;;;;;;;;6.25;5.50;;;;;;;;5095688;27;45516;-69
2022/03/04 05:51:13;;;;;;;;;7.00;7.00;;;;;;;;5095394;27;45504;-70
2022/03/04 05:53:38;;;;;;;;;7.25;5.75;;;;;;;;5079489;27;45486;-69
2022/03/04 05:56:04;;;;;;;;;7.75;6.00;;;;;;;;5096939;27;45693;-69
2022/03/04 05:58:29;;;;;;;;;9.00;9.00;;;;;;;;5095653;27;45648;-69
2022/03/04 06:00:55;;;;;;;;;7.75;6.25;;;;;;;;5094673;27;46239;-69
2022/03/04 06:03:20;;;;;;;;;6.00;6.00;;;;;;;;5095876;27;45445;-69
2022/03/04 06:05:45;;;;;;;;;7.75;7.75;;;;;;;;5100225;27;45226;-69
2022/03/04 06:08:10;;;;;;;;;8.75;6.00;;;;;;;;5096847;27;45553;-69
2022/03/04 06:10:36;;;;;;;;;6.00;6.00;;;;;;;;5095383;27;45620;-69
2022/03/04 06:13:01;;;;;;;;;6.25;5.25;;;;;;;;5076556;27;45412;-69
2022/03/04 06:15:26;;;;;;;;;9.25;6.25;;;;;;;;5094729;27;45318;-69
2022/03/04 06:17:52;;;;;;;;;7.00;6.00;;;;;;;;5095646;27;45511;-69
2022/03/04 06:20:18;;;;;;;;;6.00;5.25;;;;;;;;5099509;27;46205;-69
2022/03/04 06:22:43;;;;;;;;;7.00;7.00;;;;;;;;5095357;27;45405;-69
2022/03/04 06:25:10;;;;;;;;;5.25;5.25;;;;;;;;5097319;27;45667;-68
2022/03/04 06:27:35;;;;;;;;;6.75;5.50;;;;;;;;5095246;27;45366;-69
2022/03/04 06:30:00;;;;;;;;;6.00;6.00;;;;;;;;5092994;27;46572;-69
2022/03/04 06:32:28;;;;;;;;;6.00;6.00;;;;;;;;5091983;27;45427;-69
2022/03/04 06:34:54;;;;;;;;;5.75;5.75;;;;;;;;5095345;27;45336;-69
2022/03/04 06:37:19;;;;;;;;;7.25;6.00;;;;;;;;5094512;27;45380;-69
2022/03/04 06:39:44;;;;;;;;;6.25;6.25;;;;;;;;5094656;27;46269;-69
2022/03/04 06:42:10;;;;;;;;;3.50;3.50;;;;;;;;5094872;27;45418;-70
2022/03/04 06:44:35;;;;;;;;;8.50;6.25;;;;;;;;5078070;27;45586;-70
2022/03/04 06:47:00;;;;;;;;;6.75;6.75;;;;;;;;5095887;27;45539;-70
2022/03/04 06:49:26;;;;;;;;;6.25;6.25;;;;;;;;5096578;27;45352;-69
2022/03/04 06:51:51;;;;;;;;;9.00;7.00;;;;;;;;5094879;27;45704;-70
2022/03/04 06:54:16;;;;;;;;;7.25;7.25;;;;;;;;5094391;27;45674;-70
2022/03/04 06:56:41;;;;;;;;;8.00;8.00;;;;;;;;5095650;27;45308;-70
2022/03/04 06:59:06;;;;;;;;;9.25;6.75;;;;;;;;5095194;27;45513;-69
2022/03/04 07:01:32;;;;;;;;;4.00;4.00;;;;;;;;5095492;27;45880;-70
2022/03/04 07:03:57;;;;;;;;;7.50;6.50;;;;;;;;5095066;27;45540;-69
2022/03/04 07:06:22;;;;;;;;;7.00;6.00;;;;;;;;5094841;27;45385;-69
2022/03/04 07:08:47;;;;;;;;;7.50;5.75;;;;;;;;5094859;27;45466;-70
2022/03/04 07:11:12;;;;;;;;;7.25;7.25;;;;;;;;5095589;27;45513;-70
2022/03/04 07:13:38;;;;;;;;;10.00;5.50;;;;;;;;5094396;27;45570;-71
2022/03/04 07:16:03;;;;;;;;;6.50;6.50;;;;;;;;5095154;27;45516;-71
2022/03/04 07:18:29;;;;;;;;;6.00;6.00;;;;;;;;5093291;27;47445;-71
2022/03/04 07:20:55;;;;;;;;;7.50;6.25;;;;;;;;5079689;27;45518;-70
2022/03/04 07:23:20;;;;;;;;;6.25;6.25;;;;;;;;5095228;27;45345;-76
2022/03/04 07:25:46;;;;;;;;;7.00;5.50;;;;;;;;5094663;27;45287;-71
2022/03/04 07:28:11;;;;;;;;;5.25;5.00;;;;;;;;5096778;27;46387;-71
2022/03/04 07:30:36;;;;;;;;;9.00;8.00;;;;;;;;5102752;27;45452;-71
2022/03/04 07:33:02;;;;;;;;;7.25;5.50;;;;;;;;5093840;27;45410;-72
2022/03/04 07:35:27;;;;;;;;;7.75;5.75;;;;;;;;5095473;27;45420;-71
2022/03/04 07:37:52;;;;;;;;;5.00;5.00;;;;;;;;5095213;27;45516;-71
2022/03/04 07:40:18;;;;;;;;;7.00;5.75;;;;;;;;5093504;27;45446;-71
2022/03/04 07:42:43;;;;;;;;;5.75;4.50;;;;;;;;5092990;27;45730;-70
2022/03/04 07:45:10;;;;;;;;;6.25;6.25;;;;;;;;5093600;27;45205;-71
2022/03/04 07:47:36;;;;;;;;;5.75;5.75;;;;;;;;5096695;27;46405;-71
2022/03/04 07:50:02;;;;;;;;;6.00;5.00;;;;;;;;5097678;27;45508;-71
2022/03/04 07:52:31;;;;;;;;;5.75;4.75;;;;;;;;5097584;27;45314;-70
2022/03/04 07:54:57;;;;;;;;;5.00;5.00;;;;;;;;5097091;27;45338;-70
2022/03/04 07:57:22;;;;;;;;;7.00;6.00;;;;;;;;5095168;27;46281;-69
2022/03/04 07:59:47;;;;;;;;;6.00;6.00;;;;;;;;5083710;27;45387;-69
2022/03/04 08:02:12;;;;;;;;;6.00;6.00;;;;;;;;5098798;27;45308;-69
2022/03/04 08:04:37;;;;;;;;;4.00;4.00;;;;;;;;5098944;27;45471;-70
2022/03/04 08:07:03;;;;;;;;;6.00;6.00;;;;;;;;5091241;27;45437;-70
2022/03/04 08:09:28;;;;;;;;;5.25;5.25;;;;;;;;5086721;27;45460;-69
2022/03/04 08:11:53;;;;;;;;;5.75;5.75;;;;;;;;5096461;27;45284;-69
2022/03/04 08:14:18;;;;;;;;;7.50;5.75;;;;;;;;5098527;27;45363;-69
2022/03/04 08:16:44;;;;;;;;;4.75;4.50;;;;;;;;5097187;27;46435;-69
2022/03/04 08:19:09;;;;;;;;;4.00;4.00;;;;;;;;5097019;27;45498;-69
2022/03/04 08:21:34;;;;;;;;;4.50;4.50;;;;;;;;5097066;27;45837;-69
2022/03/04 08:23:59;;;;;;;;;6.50;5.00;;;;;;;;5097160;27;45575;-70
2022/03/04 08:26:25;;;;;;;;;5.25;5.00;;;;;;;;5097365;27;45520;-69
2022/03/04 08:28:50;;;;;;;;;5.75;5.00;;;;;;;;5097982;27;45473;-69
2022/03/04 08:31:15;;;;;;;;;5.00;5.00;;;;;;;;5096743;27;47992;-70
2022/03/04 08:33:41;;;;;;;;;5.50;4.50;;;;;;;;5097013;27;45594;-69
2022/03/04 08:36:07;;;;;;;;;6.00;6.00;;;;;;;;5096408;27;45640;-69
2022/03/04 08:38:32;;;;;;;;;5.25;5.00;;;;;;;;5096672;27;45315;-69
2022/03/04 08:40:58;;;;;;;;;6.25;4.50;;;;;;;;5101057;27;45473;-69
2022/03/04 08:43:23;;;;;;;;;5.50;5.00;;;;;;;;5096322;27;45508;-69
2022/03/04 08:45:48;;;;;;;;;4.00;4.00;;;;;;;;5096032;27;46564;-69
2022/03/04 08:48:13;;;;;;;;;6.25;5.00;;;;;;;;5099717;27;45540;-69
2022/03/04 08:50:39;;;;;;;;;8.00;4.75;;;;;;;;5096750;27;45392;-69
2022/03/04 08:53:04;;;;;;;;;5.00;5.00;;;;;;;;5100945;27;45429;-69
2022/03/04 08:55:30;;;;;;;;;4.50;3.75;;;;;;;;5095446;27;45472;-69
2022/03/04 08:57:56;;;;;;;;;5.75;4.00;;;;;;;;5096161;27;45543;-69
2022/03/04 09:00:21;;;;;;;;;6.75;5.00;;;;;;;;5095702;27;45484;-73
2022/03/04 09:02:46;;;;;;;;;4.25;4.25;;;;;;;;5096862;27;48525;-73
2022/03/04 09:05:12;;;;;;;;;7.50;5.00;;;;;;;;5097540;27;45308;-73
2022/03/04 09:07:37;;;;;;;;;4.75;4.75;;;;;;;;5098016;27;45535;-72
2022/03/04 09:10:03;;;;;;;;;4.50;4.50;;;;;;;;5078474;27;45474;-73
2022/03/04 09:12:28;;;;;;;;;5.75;4.50;;;;;;;;5088345;27;45423;-73
2022/03/04 09:14:53;;;;;;;;;5.25;4.75;;;;;;;;5096600;27;45343;-72
2022/03/04 09:17:19;;;;;;;;;3.50;3.50;;;;;;;;5097535;27;45274;-71
2022/03/04 09:19:44;;;;;;;;;5.00;5.00;;;;;;;;5096461;27;45540;-74
2022/03/04 09:22:10;;;;;;;;;5.25;5.00;;;;;;;;5100640;27;45527;-74
2022/03/04 09:24:35;;;;;;;;;4.00;4.00;;;;;;;;5095790;27;46277;-74
2022/03/04 09:27:00;;;;;;;;;4.75;3.50;;;;;;;;5096672;27;45403;-74
2022/03/04 09:29:25;;;;;;;;;4.00;4.00;;;;;;;;5078719;27;45283;-74
2022/03/04 09:31:51;;;;;;;;;7.50;5.25;;;;;;;;5096804;27;45444;-74
2022/03/04 09:34:16;;;;;;;;;5.00;5.00;;;;;;;;5095598;27;46339;-74
2022/03/04 09:36:41;;;;;;;;;5.00;4.25;;;;;;;;5096065;27;45465;-74
2022/03/04 09:39:08;;;;;;;;;4.00;3.50;;;;;;;;5096528;27;45564;-74
2022/03/04 09:41:33;;;;;;;;;4.75;4.00;;;;;;;;5107782;27;45346;-75
2022/03/04 09:43:58;;;;;;;;;4.00;4.00;;;;;;;;5096767;27;46042;-74
2022/03/04 09:46:24;;;;;;;;;5.00;4.00;;;;;;;;5095611;27;45490;-74
2022/03/04 09:48:50;;;;;;;;;5.75;4.00;;;;;;;;5096757;27;45393;-74
2022/03/04 09:51:16;;;;;;;;;4.50;3.25;;;;;;;;5095716;27;45482;-74
2022/03/04 09:53:41;;;;;;;;;4.00;4.00;;;;;;;;5095437;27;45793;-75
2022/03/04 09:56:06;;;;;;;;;5.00;5.00;;;;;;;;5097212;27;45449;-74
2022/03/04 09:58:32;;;;;;;;;5.75;4.50;;;;;;;;5095925;27;45499;-74
2022/03/04 10:00:57;;;;;;;;;5.25;4.00;;;;;;;;5072635;28;45369;-74
2022/03/04 10:03:41;;;;;;;;;4.25;3.00;;;;;;;;5083813;27;45473;-73
2022/03/04 10:06:06;;;;;;;;;4.00;4.00;;;;;;;;5093131;27;57621;-74
2022/03/04 10:08:38;;;;;;;;;3.50;3.50;;;;;;;;5094495;27;45357;-74
2022/03/04 10:11:03;;;;;;;;;4.00;4.00;;;;;;;;5094665;27;45469;-74
2022/03/04 10:13:48;;;;;;;;;5.25;3.00;;;;;;;;5095407;27;45494;-75
2022/03/04 10:16:22;;;;;;;;;3.75;3.75;;;;;;;;5098214;27;45607;-74
2022/03/04 10:19:27;;;;;;;;;5.00;3.50;;;;;;;;5096232;27;45402;-74
2022/03/04 10:21:53;;;;;;;;;7.00;4.75;;;;;;;;5032502;28;45409;-74
2022/03/04 10:24:20;;;;;;;;;3.00;3.00;;;;;;;;5030008;28;45447;-75
2022/03/04 10:26:46;;;;;;;;;3.75;3.25;;;;;;;;5032903;28;45432;-74
2022/03/04 10:29:21;;;;;;;;;6.00;4.50;;;;;;;;5033192;28;45791;-75
2022/03/04 10:32:05;;;;;;;;;3.00;3.00;;;;;;;;5032218;28;45499;-75
2022/03/04 10:34:42;;;;;;;;;4.75;3.00;;;;;;;;5032040;28;47313;-75
2022/03/04 10:37:07;;;;;;;;;3.50;3.50;;;;;;;;5029627;28;45535;-74
2022/03/04 10:39:32;;;;;;;;;5.00;3.00;;;;;;;;5031031;28;45297;-74
2022/03/04 10:41:58;;;;;;;;;3.75;3.00;;;;;;;;5017844;28;45602;-75
2022/03/04 10:44:24;;;;;;;;;4.00;4.00;;;;;;;;5029127;28;45349;-75
2022/03/04 10:46:53;;;;;;;;;5.25;3.00;;;;;;;;5025767;28;45436;-72
2022/03/04 10:49:23;;;;;;;;;2.25;2.00;;;;;;;;5028537;28;45424;-72
2022/03/04 10:51:48;;;;;;;;;3.75;2.50;;;;;;;;5041728;27;45574;-71
2022/03/04 10:54:15;;;;;;;;;4.00;3.00;;;;;;;;5094420;27;46532;-71
2022/03/04 10:56:55;;;;;;;;;5.75;3.50;;;;;;;;5078392;27;45390;-71
2022/03/04 10:59:21;;;;;;;;;3.00;3.00;;;;;;;;5091831;27;45356;-72
2022/03/04 11:01:50;;;;;;;;;4.00;3.75;;;;;;;;5095250;27;45491;-72
2022/03/04 11:04:16;;;;;;;;;3.00;3.00;;;;;;;;5094457;27;45421;-72
2022/03/04 11:06:45;;;;;;;;;2.75;2.75;;;;;;;;5094568;27;45590;-72
2022/03/04 11:09:10;;;;;;;;;3.00;3.00;;;;;;;;5095273;27;45538;-71
2022/03/04 11:11:36;;;;;;;;;3.00;3.00;;;;;;;;5094118;27;45619;-71
2022/03/04 11:14:01;;;;;;;;;2.50;2.25;;;;;;;;5095795;27;45965;-71
2022/03/04 11:16:27;;;;;;;;;3.75;3.75;;;;;;;;5094761;27;45484;-71
2022/03/04 11:18:54;;;;;;;;;2.00;2.00;;;;;;;;5094249;27;45428;-71
2022/03/04 11:21:19;;;;;;;;;3.75;3.75;;;;;;;;5097405;27;45402;-71
2022/03/04 11:23:46;;;;;;;;;4.25;2.75;;;;;;;;5100375;27;47064;-71
2022/03/04 11:26:17;;;;;;;;;2.75;2.75;;;;;;;;5099195;27;45689;-71
2022/03/04 11:28:44;;;;;;;;;3.50;3.50;;;;;;;;5098004;27;45257;-71
2022/03/04 11:31:11;;;;;;;;;3.75;3.75;;;;;;;;5092914;27;45472;-71
2022/03/04 11:33:42;;;;;;;;;3.75;3.75;;;;;;;;5098308;27;45444;-71
2022/03/04 11:36:09;;;;;;;;;2.00;2.00;;;;;;;;5101652;27;45530;-71
2022/03/04 11:38:46;;;;;;;;;4.00;3.25;;;;;;;;5097970;27;45923;-71
2022/03/04 11:41:16;;;;;;;;;2.50;2.50;;;;;;;;5098489;27;45261;-71
2022/03/04 11:43:45;;;;;;;;;3.50;3.50;;;;;;;;5086071;27;45412;-71
2022/03/04 11:46:17;;;;;;;;;1.00;1.00;;;;;;;;5093550;27;45576;-71
2022/03/04 11:48:42;;;;;;;;;4.00;3.00;;;;;;;;5106677;27;45494;-71
2022/03/04 11:51:14;;;;;;;;;4.50;3.25;;;;;;;;5100566;27;45552;-71
2022/03/04 11:53:39;;;;;;;;;2.25;2.25;;;;;;;;5097636;27;45511;-72
2022/03/04 11:56:07;;;;;;;;;2.50;2.00;;;;;;;;5098765;27;45369;-72
2022/03/04 11:58:52;;;;;;;;;3.50;3.00;;;;;;;;5097136;27;45432;-72
2022/03/04 12:01:24;;;;;;;;;3.75;3.75;;;;;;;;5086597;27;45623;-73
2022/03/04 12:04:10;;;;;;;;;3.00;3.00;;;;;;;;5100660;27;47364;-73
2022/03/04 12:06:35;;;;;;;;;2.00;2.00;;;;;;;;5106834;27;45824;-73
2022/03/04 12:09:19;;;;;;;;;5.25;4.00;;;;;;;;5097806;27;45327;-73
2022/03/04 12:12:03;;;;;;;;;3.50;3.50;;;;;;;;5097570;27;45532;-73
2022/03/04 12:14:28;;;;;;;;;2.00;2.00;;;;;;;;5110947;27;46873;-73
2022/03/04 12:16:55;;;;;;;;;6.75;4.25;;;;;;;;5098701;27;45445;-72
2022/03/04 12:19:33;;;;;;;;;4.75;3.50;;;;;;;;5097287;27;45275;-70
2022/03/04 12:21:58;;;;;;;;;3.75;3.00;;;;;;;;5090785;27;45397;-69
2022/03/04 12:24:30;;;;;;;;;3.00;3.00;;;;;;;;5097225;27;46069;-68
2022/03/04 12:26:55;;;;;;;;;4.25;4.25;;;;;;;;5093252;27;45487;-69
2022/03/04 12:29:21;;;;;;;;;3.00;3.00;;;;;;;;5098457;27;45257;-69
2022/03/04 12:31:48;;;;;;;;;3.25;2.50;;;;;;;;5096201;27;45709;-69
2022/03/04 12:34:21;;;;;;;;;2.25;2.25;;;;;;;;5096748;27;45398;-69
2022/03/04 12:36:47;;;;;;;;;4.00;4.00;;;;;;;;5096639;27;45426;-69
2022/03/04 12:39:15;;;;;;;;;5.25;3.50;;;;;;;;5096920;27;45356;-69
2022/03/04 12:41:41;;;;;;;;;3.25;3.25;;;;;;;;5097021;27;45551;-69
2022/03/04 12:44:07;;;;;;;;;4.00;4.00;;;;;;;;5097737;27;45248;-69
2022/03/04 12:46:34;;;;;;;;;3.00;3.00;;;;;;;;5096366;27;45661;-69
2022/03/04 12:49:00;;;;;;;;;3.00;3.00;;;;;;;;5091730;27;45440;-69
2022/03/04 12:51:33;;;;;;;;;3.00;3.00;;;;;;;;5096209;27;45623;-69
2022/03/04 12:54:14;;;;;;;;;4.25;4.25;;;;;;;;5096288;27;46084;-69
2022/03/04 12:56:40;;;;;;;;;5.00;5.00;;;;;;;;5096735;27;45422;-69
2022/03/04 12:59:09;;;;;;;;;3.75;3.50;;;;;;;;5083086;27;45370;-69
2022/03/04 13:01:41;;;;;;;;;5.25;3.75;;;;;;;;5094385;27;45373;-69
2022/03/04 13:04:08;;;;;;;;;3.75;3.00;;;;;;;;5096225;27;45713;-69
2022/03/04 13:06:34;;;;;;;;;6.50;4.00;;;;;;;;5096786;27;45623;-69
2022/03/04 13:09:02;;;;;;;;;4.00;4.00;;;;;;;;5104546;27;45570;-69
2022/03/04 13:11:28;;;;;;;;;3.50;3.50;;;;;;;;5096695;27;45507;-68
2022/03/04 13:14:04;;;;;;;;;6.00;3.50;;;;;;;;5101235;27;45544;-69
2022/03/04 13:16:30;;;;;;;;;3.50;3.50;;;;;;;;5098650;27;45484;-69
2022/03/04 13:18:57;;;;;;;;;3.25;3.25;;;;;;;;5096396;27;45744;-69
2022/03/04 13:21:35;;;;;;;;;3.75;3.00;;;;;;;;5095837;27;45567;-69
2022/03/04 13:24:06;;;;;;;;;3.50;3.50;;;;;;;;5086762;27;48487;-70
2022/03/04 13:26:31;;;;;;;;;3.75;3.00;;;;;;;;5095770;27;45588;-68
2022/03/04 13:28:59;;;;;;;;;3.00;3.00;;;;;;;;5096996;27;45353;-68
2022/03/04 13:31:26;;;;;;;;;3.00;3.00;;;;;;;;5095764;27;45879;-69
2022/03/04 13:33:55;;;;;;;;;4.75;4.75;;;;;;;;5091805;27;47570;-69
2022/03/04 13:36:36;;;;;;;;;4.25;4.25;;;;;;;;5084265;27;45473;-69
2022/03/04 13:39:17;;;;;;;;;3.75;3.75;;;;;;;;5081831;27;45367;-70
2022/03/04 13:41:42;;;;;;;;;4.25;4.25;;;;;;;;5096324;27;45630;-69
2022/03/04 13:44:12;;;;;;;;;5.75;2.50;;;;;;;;5095552;27;46187;-69
2022/03/04 13:46:57;;;;;;;;;4.00;4.00;;;;;;;;5091132;27;45394;-69
2022/03/04 13:49:22;;;;;;;;;4.00;3.00;;;;;;;;5095014;27;45561;-69
2022/03/04 13:52:01;;;;;;;;;5.50;3.75;;;;;;;;5095943;27;45267;-69
2022/03/04 13:54:45;;;;;;;;;5.50;4.00;;;;;;;;5095693;27;46223;-69
2022/03/04 13:57:22;;;;;;;;;3.50;3.50;;;;;;;;5095356;27;45497;-69
2022/03/04 13:59:48;;;;;;;;;5.50;4.25;;;;;;;;5095414;27;45472;-69
2022/03/04 14:02:13;;;;;;;;;5.00;4.00;;;;;;;;5096245;27;45376;-69
2022/03/04 14:04:50;;;;;;;;;7.25;6.00;;;;;;;;5095573;27;46421;-69
2022/03/04 14:07:18;;;;;;;;;3.00;3.00;;;;;;;;5095609;27;45513;-69
2022/03/04 14:09:49;;;;;;;;;6.00;6.00;;;;;;;;5097864;27;45466;-68
2022/03/04 14:12:14;;;;;;;;;7.00;4.50;;;;;;;;5108762;27;45380;-69
2022/03/04 14:14:39;;;;;;;;;4.25;3.00;;;;;;;;5094676;27;45460;-69
2022/03/04 14:17:05;;;;;;;;;4.75;4.00;;;;;;;;5096512;27;45518;-69
2022/03/04 14:19:30;;;;;;;;;6.25;4.75;;;;;;;;5095245;27;45450;-69
2022/03/04 14:21:55;;;;;;;;;4.50;4.25;;;;;;;;5095406;27;45512;-69
2022/03/04 14:24:20;;;;;;;;;5.50;4.00;;;;;;;;5097411;27;45526;-69
2022/03/04 14:26:46;;;;;;;;;7.25;4.00;;;;;;;;5095805;27;45425;-69
2022/03/04 14:29:11;;;;;;;;;3.75;3.50;;;;;;;;5095797;27;45560;-69
2022/03/04 14:31:36;;;;;;;;;7.25;6.00;;;;;;;;5095464;27;45503;-69
2022/03/04 14:34:02;;;;;;;;;4.25;4.25;;;;;;;;5094918;27;46357;-69
2022/03/04 14:36:28;;;;;;;;;4.00;4.00;;;;;;;;5094915;27;45488;-69
2022/03/04 14:38:53;;;;;;;;;4.25;4.25;;;;;;;;5095097;27;45487;-69
2022/03/04 14:41:19;;;;;;;;;6.50;6.50;;;;;;;;5096447;27;45447;-69